Huvudsida
METAR-TAF:

METAR-TAF

Flygplatser :

Semnan, Iran

latitud: 35-33N, longitud: 053-23E, höjd: 1171 m

Aktuellt väderrapport

Denna rapport gjordes för 1 timme och 12 minuter sedan, klockan 13:00 UTC
Vind 4 kt från syd
Temperatur 18°C
Fuktighet 14%
Tryck 1022 hPa
Sikt 10 km eller mer
Inga moln under 1 500 m eller inga cumulonimbus

METAR: OIIS 121300Z 19004KT CAVOK 18/M10 Q1022

Tid: 17:42 (14:12 UTC)


TAF: saknas

Aktuella väderrapporter och prognoser från 4000 flygplatser (METAR- och TAF-rapporter).

De tillgängliga stationerna syns som gula och röda prickar på kartan.

För musen över prickarna för att se namnen på stationerna.

Klicka sedan för att få väderrapporter och prognoser.

För att ändra kartan: Klicka på de gröna knapparna med ett svart kors på för att zooma in; den gröna knappen med ett streck på för att zooma ut; eller på de gröna pilarna för angränsande kartor.


METAR-TAF: